sensor_id;sensor_type;location;lat;lon;timestamp;pressure;altitude;pressure_sealevel;temperature;humidity
71907;BME280;59781;52.090;5.030;2022-07-25T00:02:03;101038.06;;;24.57;57.75
71907;BME280;59781;52.090;5.030;2022-07-25T00:04:29;101037.94;;;24.69;56.95
71907;BME280;59781;52.090;5.030;2022-07-25T00:06:54;101030.97;;;24.62;57.35
71907;BME280;59781;52.090;5.030;2022-07-25T00:09:20;101021.97;;;24.44;57.64
71907;BME280;59781;52.090;5.030;2022-07-25T00:11:46;101024.91;;;24.38;58.48
71907;BME280;59781;52.090;5.030;2022-07-25T00:14:12;101018.84;;;24.36;58.46
71907;BME280;59781;52.090;5.030;2022-07-25T00:16:37;101014.44;;;24.35;58.14
71907;BME280;59781;52.090;5.030;2022-07-25T00:19:04;101008.84;;;24.29;58.65
71907;BME280;59781;52.090;5.030;2022-07-25T00:21:30;101009.19;;;24.33;58.09
71907;BME280;59781;52.090;5.030;2022-07-25T00:23:57;101004.59;;;24.39;57.84
71907;BME280;59781;52.090;5.030;2022-07-25T00:26:22;101006.84;;;24.47;57.87
71907;BME280;59781;52.090;5.030;2022-07-25T00:28:48;100995.91;;;24.30;58.18
71907;BME280;59781;52.090;5.030;2022-07-25T00:31:14;101007.06;;;24.18;58.81
71907;BME280;59781;52.090;5.030;2022-07-25T00:33:40;101001.50;;;24.13;58.72
71907;BME280;59781;52.090;5.030;2022-07-25T00:36:07;101022.47;;;23.97;60.39
71907;BME280;59781;52.090;5.030;2022-07-25T00:38:33;101023.59;;;23.41;62.89
71907;BME280;59781;52.090;5.030;2022-07-25T00:40:59;101031.75;;;23.19;63.96
71907;BME280;59781;52.090;5.030;2022-07-25T00:43:25;101030.84;;;22.97;65.87
71907;BME280;59781;52.090;5.030;2022-07-25T00:45:51;101025.28;;;22.80;65.67
71907;BME280;59781;52.090;5.030;2022-07-25T00:48:17;101024.72;;;22.78;66.74
71907;BME280;59781;52.090;5.030;2022-07-25T00:50:43;101018.09;;;22.45;68.67
71907;BME280;59781;52.090;5.030;2022-07-25T00:53:09;101013.75;;;22.49;68.69
71907;BME280;59781;52.090;5.030;2022-07-25T00:55:36;101016.22;;;22.34;70.39
71907;BME280;59781;52.090;5.030;2022-07-25T00:58:02;101013.03;;;22.25;69.83
71907;BME280;59781;52.090;5.030;2022-07-25T01:00:28;101020.59;;;22.07;72.01
71907;BME280;59781;52.090;5.030;2022-07-25T01:02:54;101009.88;;;21.93;72.50
71907;BME280;59781;52.090;5.030;2022-07-25T01:05:20;101000.16;;;21.74;72.55
71907;BME280;59781;52.090;5.030;2022-07-25T01:07:46;101002.97;;;21.91;72.05
71907;BME280;59781;52.090;5.030;2022-07-25T01:10:12;100996.88;;;21.89;74.05
71907;BME280;59781;52.090;5.030;2022-07-25T01:15:20;100994.28;;;21.70;74.97
71907;BME280;59781;52.090;5.030;2022-07-25T01:17:48;100991.13;;;21.38;75.40
71907;BME280;59781;52.090;5.030;2022-07-25T01:20:26;100984.78;;;21.50;75.16
71907;BME280;59781;52.090;5.030;2022-07-25T01:22:53;100983.84;;;21.56;75.21
71907;BME280;59781;52.090;5.030;2022-07-25T01:25:19;100982.28;;;21.25;77.16
71907;BME280;59781;52.090;5.030;2022-07-25T01:27:47;100981.06;;;21.20;78.22
71907;BME280;59781;52.090;5.030;2022-07-25T01:30:15;100980.97;;;21.15;78.67
71907;BME280;59781;52.090;5.030;2022-07-25T01:32:43;100981.69;;;21.58;74.93
71907;BME280;59781;52.090;5.030;2022-07-25T01:35:11;100979.56;;;21.36;76.21
71907;BME280;59781;52.090;5.030;2022-07-25T01:37:39;100971.06;;;21.03;78.37
71907;BME280;59781;52.090;5.030;2022-07-25T01:40:06;100975.25;;;21.17;77.95
71907;BME280;59781;52.090;5.030;2022-07-25T01:42:33;100963.69;;;21.03;79.38
71907;BME280;59781;52.090;5.030;2022-07-25T01:44:59;100972.13;;;20.90;79.92
71907;BME280;59781;52.090;5.030;2022-07-25T01:47:25;100959.59;;;20.71;80.72
71907;BME280;59781;52.090;5.030;2022-07-25T01:49:51;100953.91;;;20.84;80.23
71907;BME280;59781;52.090;5.030;2022-07-25T01:52:17;100957.72;;;20.83;81.24
71907;BME280;59781;52.090;5.030;2022-07-25T01:54:43;100953.69;;;20.85;81.28
71907;BME280;59781;52.090;5.030;2022-07-25T01:57:09;100937.72;;;20.82;81.45
71907;BME280;59781;52.090;5.030;2022-07-25T01:59:39;100935.16;;;21.34;77.92
71907;BME280;59781;52.090;5.030;2022-07-25T02:02:07;100935.34;;;21.21;77.51
71907;BME280;59781;52.090;5.030;2022-07-25T02:04:35;100937.63;;;21.47;76.20
71907;BME280;59781;52.090;5.030;2022-07-25T02:07:01;100932.88;;;21.31;77.65
71907;BME280;59781;52.090;5.030;2022-07-25T02:09:27;100929.16;;;21.26;77.23
71907;BME280;59781;52.090;5.030;2022-07-25T02:11:54;100917.59;;;21.47;77.30
71907;BME280;59781;52.090;5.030;2022-07-25T02:14:20;100926.41;;;21.49;75.84
71907;BME280;59781;52.090;5.030;2022-07-25T02:16:46;100921.75;;;21.50;76.55
71907;BME280;59781;52.090;5.030;2022-07-25T02:19:11;100914.06;;;21.35;76.40
71907;BME280;59781;52.090;5.030;2022-07-25T02:21:37;100909.16;;;21.25;77.13
71907;BME280;59781;52.090;5.030;2022-07-25T02:24:04;100903.41;;;21.50;75.55
71907;BME280;59781;52.090;5.030;2022-07-25T02:26:31;100901.06;;;21.30;76.24
71907;BME280;59781;52.090;5.030;2022-07-25T02:28:57;100896.84;;;21.51;75.59
71907;BME280;59781;52.090;5.030;2022-07-25T02:31:23;100907.56;;;21.53;75.63
71907;BME280;59781;52.090;5.030;2022-07-25T02:33:49;100890.97;;;21.71;74.59
71907;BME280;59781;52.090;5.030;2022-07-25T02:36:15;100891.41;;;21.39;76.12
71907;BME280;59781;52.090;5.030;2022-07-25T02:38:41;100888.31;;;21.36;77.29
71907;BME280;59781;52.090;5.030;2022-07-25T02:41:06;100894.75;;;21.18;77.88
71907;BME280;59781;52.090;5.030;2022-07-25T02:43:32;100876.88;;;21.04;78.57
71907;BME280;59781;52.090;5.030;2022-07-25T02:45:58;100880.56;;;21.21;77.68
71907;BME280;59781;52.090;5.030;2022-07-25T02:48:24;100875.94;;;21.10;78.07
71907;BME280;59781;52.090;5.030;2022-07-25T02:50:50;100858.91;;;21.08;77.58
71907;BME280;59781;52.090;5.030;2022-07-25T02:53:15;100853.38;;;21.55;74.63
71907;BME280;59781;52.090;5.030;2022-07-25T02:55:41;100853.81;;;21.63;73.89
71907;BME280;59781;52.090;5.030;2022-07-25T02:58:07;100854.25;;;21.43;75.65
71907;BME280;59781;52.090;5.030;2022-07-25T03:00:33;100863.78;;;21.29;76.06
71907;BME280;59781;52.090;5.030;2022-07-25T03:03:00;100847.53;;;21.51;74.31
71907;BME280;59781;52.090;5.030;2022-07-25T03:05:25;100848.91;;;21.37;74.32
71907;BME280;59781;52.090;5.030;2022-07-25T03:07:51;100855.00;;;21.27;74.92
71907;BME280;59781;52.090;5.030;2022-07-25T03:10:17;100845.03;;;21.50;74.02
71907;BME280;59781;52.090;5.030;2022-07-25T03:12:43;100832.81;;;21.69;72.87
71907;BME280;59781;52.090;5.030;2022-07-25T03:15:11;100844.84;;;21.68;72.80
71907;BME280;59781;52.090;5.030;2022-07-25T03:17:38;100846.06;;;21.89;72.02
71907;BME280;59781;52.090;5.030;2022-07-25T03:20:05;100841.53;;;21.94;71.70
71907;BME280;59781;52.090;5.030;2022-07-25T03:22:32;100832.03;;;21.85;71.51
71907;BME280;59781;52.090;5.030;2022-07-25T03:24:58;100831.78;;;21.87;71.07
71907;BME280;59781;52.090;5.030;2022-07-25T03:27:23;100832.94;;;21.91;71.10
71907;BME280;59781;52.090;5.030;2022-07-25T03:29:49;100834.78;;;21.85;71.30
71907;BME280;59781;52.090;5.030;2022-07-25T03:32:15;100842.44;;;22.00;70.68
71907;BME280;59781;52.090;5.030;2022-07-25T03:34:40;100840.69;;;21.65;71.69
71907;BME280;59781;52.090;5.030;2022-07-25T03:37:06;100844.53;;;21.64;72.20
71907;BME280;59781;52.090;5.030;2022-07-25T03:39:32;100843.50;;;21.42;73.29
71907;BME280;59781;52.090;5.030;2022-07-25T03:41:58;100842.63;;;21.53;72.35
71907;BME280;59781;52.090;5.030;2022-07-25T03:44:25;100828.53;;;21.73;71.83
71907;BME280;59781;52.090;5.030;2022-07-25T03:46:51;100834.66;;;21.52;72.54
71907;BME280;59781;52.090;5.030;2022-07-25T03:49:17;100830.44;;;21.20;75.23
71907;BME280;59781;52.090;5.030;2022-07-25T03:51:44;100838.31;;;21.17;76.20
71907;BME280;59781;52.090;5.030;2022-07-25T03:54:10;100831.41;;;21.14;76.43
71907;BME280;59781;52.090;5.030;2022-07-25T03:56:41;100835.81;;;21.27;75.24
71907;BME280;59781;52.090;5.030;2022-07-25T03:59:12;100842.50;;;20.96;77.83
71907;BME280;59781;52.090;5.030;2022-07-25T04:01:40;100838.31;;;20.94;77.67
71907;BME280;59781;52.090;5.030;2022-07-25T04:04:07;100840.69;;;21.13;75.80
71907;BME280;59781;52.090;5.030;2022-07-25T04:06:34;100837.88;;;20.85;78.30
71907;BME280;59781;52.090;5.030;2022-07-25T04:09:00;100845.59;;;20.88;79.53
71907;BME280;59781;52.090;5.030;2022-07-25T04:11:26;100843.34;;;20.85;78.42
71907;BME280;59781;52.090;5.030;2022-07-25T04:13:53;100841.44;;;20.85;78.66
71907;BME280;59781;52.090;5.030;2022-07-25T04:16:19;100849.41;;;20.87;78.40
71907;BME280;59781;52.090;5.030;2022-07-25T04:18:45;100855.22;;;21.02;77.78
71907;BME280;59781;52.090;5.030;2022-07-25T04:21:11;100847.59;;;20.92;77.79
71907;BME280;59781;52.090;5.030;2022-07-25T04:23:37;100838.94;;;20.72;78.33
71907;BME280;59781;52.090;5.030;2022-07-25T04:26:03;100848.69;;;20.68;78.55
71907;BME280;59781;52.090;5.030;2022-07-25T04:28:29;100859.16;;;20.83;79.27
71907;BME280;59781;52.090;5.030;2022-07-25T04:30:55;100859.53;;;20.75;79.20
71907;BME280;59781;52.090;5.030;2022-07-25T04:33:21;100855.13;;;20.62;79.38
71907;BME280;59781;52.090;5.030;2022-07-25T04:35:48;100841.81;;;20.77;78.43
71907;BME280;59781;52.090;5.030;2022-07-25T04:38:15;100844.88;;;21.04;77.82
71907;BME280;59781;52.090;5.030;2022-07-25T04:40:43;100844.28;;;20.79;79.31
71907;BME280;59781;52.090;5.030;2022-07-25T04:43:10;100836.44;;;20.82;79.09
71907;BME280;59781;52.090;5.030;2022-07-25T04:45:36;100830.34;;;20.92;78.71
71907;BME280;59781;52.090;5.030;2022-07-25T04:48:03;100832.16;;;20.86;78.58
71907;BME280;59781;52.090;5.030;2022-07-25T04:50:29;100833.81;;;20.87;79.76
71907;BME280;59781;52.090;5.030;2022-07-25T04:52:55;100833.69;;;20.94;79.14
71907;BME280;59781;52.090;5.030;2022-07-25T04:55:22;100831.66;;;21.01;78.51
71907;BME280;59781;52.090;5.030;2022-07-25T04:57:48;100830.94;;;21.06;78.08
71907;BME280;59781;52.090;5.030;2022-07-25T05:00:14;100832.63;;;20.83;80.08
71907;BME280;59781;52.090;5.030;2022-07-25T05:02:42;100827.75;;;20.85;79.42
71907;BME280;59781;52.090;5.030;2022-07-25T05:05:09;100820.00;;;20.82;79.42
71907;BME280;59781;52.090;5.030;2022-07-25T05:07:35;100830.94;;;21.06;77.62
71907;BME280;59781;52.090;5.030;2022-07-25T05:10:02;100818.31;;;21.16;77.19
71907;BME280;59781;52.090;5.030;2022-07-25T05:12:29;100820.06;;;21.23;78.10
71907;BME280;59781;52.090;5.030;2022-07-25T05:14:55;100834.44;;;21.41;76.74
71907;BME280;59781;52.090;5.030;2022-07-25T05:17:21;100830.75;;;21.76;75.46
71907;BME280;59781;52.090;5.030;2022-07-25T05:19:47;100834.47;;;21.70;75.28
71907;BME280;59781;52.090;5.030;2022-07-25T05:22:14;100833.94;;;21.85;74.04
71907;BME280;59781;52.090;5.030;2022-07-25T05:24:39;100831.03;;;21.91;73.32
71907;BME280;59781;52.090;5.030;2022-07-25T05:27:05;100839.81;;;22.05;72.71
71907;BME280;59781;52.090;5.030;2022-07-25T05:29:32;100834.16;;;22.12;73.85
71907;BME280;59781;52.090;5.030;2022-07-25T05:31:57;100825.63;;;22.25;71.84
71907;BME280;59781;52.090;5.030;2022-07-25T05:34:23;100828.78;;;22.50;70.96
71907;BME280;59781;52.090;5.030;2022-07-25T05:36:49;100830.94;;;22.48;70.98
71907;BME280;59781;52.090;5.030;2022-07-25T05:39:15;100838.03;;;22.44;71.11
71907;BME280;59781;52.090;5.030;2022-07-25T05:41:41;100839.28;;;22.53;70.17
71907;BME280;59781;52.090;5.030;2022-07-25T05:44:30;100836.53;;;22.53;70.61
71907;BME280;59781;52.090;5.030;2022-07-25T05:46:55;100836.34;;;22.60;69.62
71907;BME280;59781;52.090;5.030;2022-07-25T05:49:21;100840.03;;;22.32;72.12
71907;BME280;59781;52.090;5.030;2022-07-25T05:51:47;100844.09;;;22.29;72.38
71907;BME280;59781;52.090;5.030;2022-07-25T05:54:12;100847.75;;;22.35;70.62
71907;BME280;59781;52.090;5.030;2022-07-25T05:56:38;100854.25;;;22.46;69.64
71907;BME280;59781;52.090;5.030;2022-07-25T05:59:06;100847.66;;;22.47;71.64
71907;BME280;59781;52.090;5.030;2022-07-25T06:01:31;100836.66;;;22.97;67.22
71907;BME280;59781;52.090;5.030;2022-07-25T06:04:00;100841.81;;;23.32;66.21
71907;BME280;59781;52.090;5.030;2022-07-25T06:06:25;100830.22;;;23.74;62.98
71907;BME280;59781;52.090;5.030;2022-07-25T06:08:51;100828.03;;;23.10;67.16
71907;BME280;59781;52.090;5.030;2022-07-25T06:11:29;100830.28;;;23.13;65.34
71907;BME280;59781;52.090;5.030;2022-07-25T06:13:56;100833.13;;;23.40;64.39
71907;BME280;59781;52.090;5.030;2022-07-25T06:16:23;100831.50;;;23.23;64.49
71907;BME280;59781;52.090;5.030;2022-07-25T06:18:49;100836.06;;;23.34;63.91
71907;BME280;59781;52.090;5.030;2022-07-25T06:21:16;100836.81;;;23.29;64.50
71907;BME280;59781;52.090;5.030;2022-07-25T06:23:42;100834.78;;;23.63;62.78
71907;BME280;59781;52.090;5.030;2022-07-25T06:26:08;100835.75;;;23.79;63.07
71907;BME280;59781;52.090;5.030;2022-07-25T06:28:36;100841.09;;;24.87;59.43
71907;BME280;59781;52.090;5.030;2022-07-25T06:31:02;100843.56;;;24.78;60.01
71907;BME280;59781;52.090;5.030;2022-07-25T06:33:28;100840.81;;;24.14;61.59
71907;BME280;59781;52.090;5.030;2022-07-25T06:35:53;100843.78;;;23.81;64.29
71907;BME280;59781;52.090;5.030;2022-07-25T06:38:19;100854.59;;;23.65;63.25
71907;BME280;59781;52.090;5.030;2022-07-25T06:40:45;100845.09;;;23.56;63.20
71907;BME280;59781;52.090;5.030;2022-07-25T06:43:10;100833.94;;;23.41;65.97
71907;BME280;59781;52.090;5.030;2022-07-25T06:45:36;100844.28;;;23.12;64.91
71907;BME280;59781;52.090;5.030;2022-07-25T06:48:02;100844.47;;;23.05;65.08
71907;BME280;59781;52.090;5.030;2022-07-25T06:50:28;100855.66;;;22.82;66.46
71907;BME280;59781;52.090;5.030;2022-07-25T06:52:54;100861.13;;;22.82;66.03
71907;BME280;59781;52.090;5.030;2022-07-25T06:55:20;100862.19;;;22.81;66.08
71907;BME280;59781;52.090;5.030;2022-07-25T06:57:45;100853.84;;;23.09;64.35
71907;BME280;59781;52.090;5.030;2022-07-25T07:00:31;100852.56;;;22.95;64.64
71907;BME280;59781;52.090;5.030;2022-07-25T07:03:00;100846.47;;;22.76;64.80
71907;BME280;59781;52.090;5.030;2022-07-25T07:05:30;100857.31;;;22.66;67.42
71907;BME280;59781;52.090;5.030;2022-07-25T07:07:58;100859.81;;;22.51;65.98
71907;BME280;59781;52.090;5.030;2022-07-25T07:10:25;100855.13;;;22.68;67.43
71907;BME280;59781;52.090;5.030;2022-07-25T07:13:10;100852.06;;;22.81;65.37
71907;BME280;59781;52.090;5.030;2022-07-25T07:15:38;100850.56;;;22.57;65.88
71907;BME280;59781;52.090;5.030;2022-07-25T07:18:19;100859.06;;;22.55;67.00
71907;BME280;59781;52.090;5.030;2022-07-25T07:20:46;100854.47;;;22.61;67.30
71907;BME280;59781;52.090;5.030;2022-07-25T07:23:32;100849.66;;;22.85;67.42
71907;BME280;59781;52.090;5.030;2022-07-25T07:25:58;100852.31;;;22.97;67.77
71907;BME280;59781;52.090;5.030;2022-07-25T07:28:24;100851.06;;;23.04;67.69
71907;BME280;59781;52.090;5.030;2022-07-25T07:30:50;100848.84;;;22.84;68.84
71907;BME280;59781;52.090;5.030;2022-07-25T07:33:15;100851.59;;;22.84;67.70
71907;BME280;59781;52.090;5.030;2022-07-25T07:35:44;100849.31;;;22.98;67.88
71907;BME280;59781;52.090;5.030;2022-07-25T07:38:12;100845.50;;;23.21;67.46
71907;BME280;59781;52.090;5.030;2022-07-25T07:40:38;100849.78;;;23.56;66.17
71907;BME280;59781;52.090;5.030;2022-07-25T07:43:07;100846.16;;;23.50;65.12
71907;BME280;59781;52.090;5.030;2022-07-25T07:45:33;100848.97;;;23.33;66.40
71907;BME280;59781;52.090;5.030;2022-07-25T07:48:00;100864.41;;;23.39;66.71
71907;BME280;59781;52.090;5.030;2022-07-25T07:50:27;100855.28;;;23.56;66.47
71907;BME280;59781;52.090;5.030;2022-07-25T07:52:54;100860.50;;;23.57;66.37
71907;BME280;59781;52.090;5.030;2022-07-25T07:55:23;100861.44;;;23.63;65.58
71907;BME280;59781;52.090;5.030;2022-07-25T07:58:18;100861.75;;;23.44;66.10
71907;BME280;59781;52.090;5.030;2022-07-25T08:00:48;100860.41;;;23.25;67.22
71907;BME280;59781;52.090;5.030;2022-07-25T08:03:41;100858.41;;;23.21;68.65
71907;BME280;59781;52.090;5.030;2022-07-25T08:06:06;100865.84;;;23.42;67.42
71907;BME280;59781;52.090;5.030;2022-07-25T08:08:32;100865.63;;;23.48;68.60
71907;BME280;59781;52.090;5.030;2022-07-25T08:10:58;100868.28;;;24.09;66.87
71907;BME280;59781;52.090;5.030;2022-07-25T08:13:28;100857.81;;;25.07;63.47
71907;BME280;59781;52.090;5.030;2022-07-25T08:15:57;100857.56;;;25.71;61.29
71907;BME280;59781;52.090;5.030;2022-07-25T08:18:25;100858.06;;;25.58;60.86
71907;BME280;59781;52.090;5.030;2022-07-25T08:21:14;100860.38;;;24.82;64.40
71907;BME280;59781;52.090;5.030;2022-07-25T08:23:40;100871.59;;;24.11;65.38
71907;BME280;59781;52.090;5.030;2022-07-25T08:26:33;100868.78;;;24.06;66.02
71907;BME280;59781;52.090;5.030;2022-07-25T08:29:01;100865.94;;;23.96;66.90
71907;BME280;59781;52.090;5.030;2022-07-25T08:31:27;100867.50;;;24.14;66.17
71907;BME280;59781;52.090;5.030;2022-07-25T08:33:53;100869.47;;;23.69;67.89
71907;BME280;59781;52.090;5.030;2022-07-25T08:36:19;100860.50;;;23.79;68.58
71907;BME280;59781;52.090;5.030;2022-07-25T08:38:44;100862.97;;;23.75;67.91
71907;BME280;59781;52.090;5.030;2022-07-25T08:41:44;100858.00;;;23.99;67.28
71907;BME280;59781;52.090;5.030;2022-07-25T08:44:40;100869.75;;;23.68;68.25
71907;BME280;59781;52.090;5.030;2022-07-25T08:47:08;100877.97;;;23.46;69.04
71907;BME280;59781;52.090;5.030;2022-07-25T08:49:35;100858.19;;;23.66;68.60
71907;BME280;59781;52.090;5.030;2022-07-25T08:52:01;100862.69;;;23.55;67.34
71907;BME280;59781;52.090;5.030;2022-07-25T08:54:30;100886.47;;;23.23;66.54
71907;BME280;59781;52.090;5.030;2022-07-25T08:56:56;100879.09;;;23.67;67.07
71907;BME280;59781;52.090;5.030;2022-07-25T08:59:21;100872.00;;;23.98;66.72
71907;BME280;59781;52.090;5.030;2022-07-25T09:02:07;100869.69;;;24.12;64.68
71907;BME280;59781;52.090;5.030;2022-07-25T09:05:16;100875.13;;;24.07;65.75
71907;BME280;59781;52.090;5.030;2022-07-25T09:07:42;100872.06;;;24.30;63.19
71907;BME280;59781;52.090;5.030;2022-07-25T09:10:12;100881.25;;;24.41;64.50
71907;BME280;59781;52.090;5.030;2022-07-25T09:12:53;100877.28;;;24.58;62.42
71907;BME280;59781;52.090;5.030;2022-07-25T09:18:01;100878.06;;;24.91;60.53
71907;BME280;59781;52.090;5.030;2022-07-25T09:20:59;100878.34;;;24.57;60.03
71907;BME280;59781;52.090;5.030;2022-07-25T09:23:52;100876.63;;;24.83;59.78
71907;BME280;59781;52.090;5.030;2022-07-25T09:26:45;100876.13;;;25.29;58.39
71907;BME280;59781;52.090;5.030;2022-07-25T09:31:54;100869.28;;;26.70;52.38
71907;BME280;59781;52.090;5.030;2022-07-25T09:34:37;100886.38;;;26.26;53.15
71907;BME280;59781;52.090;5.030;2022-07-25T09:37:06;100882.69;;;25.80;53.84
71907;BME280;59781;52.090;5.030;2022-07-25T09:39:52;100880.50;;;25.92;53.94
71907;BME280;59781;52.090;5.030;2022-07-25T09:42:27;100880.44;;;25.67;53.33
71907;BME280;59781;52.090;5.030;2022-07-25T09:45:08;100874.41;;;25.17;53.89
71907;BME280;59781;52.090;5.030;2022-07-25T09:48:14;100905.22;;;25.09;56.00
71907;BME280;59781;52.090;5.030;2022-07-25T09:50:40;100898.59;;;24.73;57.24
71907;BME280;59781;52.090;5.030;2022-07-25T09:54:08;100899.25;;;24.53;56.56
71907;BME280;59781;52.090;5.030;2022-07-25T09:57:09;100901.13;;;24.48;57.32
71907;BME280;59781;52.090;5.030;2022-07-25T09:59:35;100911.66;;;24.56;57.54
71907;BME280;59781;52.090;5.030;2022-07-25T10:02:09;100912.97;;;24.80;55.98
71907;BME280;59781;52.090;5.030;2022-07-25T10:04:57;100910.47;;;25.11;54.54
71907;BME280;59781;52.090;5.030;2022-07-25T10:07:25;100920.50;;;25.80;53.57
71907;BME280;59781;52.090;5.030;2022-07-25T10:10:26;100923.38;;;25.05;55.48
71907;BME280;59781;52.090;5.030;2022-07-25T10:13:15;100920.50;;;25.32;55.73
71907;BME280;59781;52.090;5.030;2022-07-25T10:16:17;100926.59;;;25.34;54.28
71907;BME280;59781;52.090;5.030;2022-07-25T10:21:39;100940.53;;;24.48;57.12
71907;BME280;59781;52.090;5.030;2022-07-25T10:24:32;100943.88;;;24.87;57.33
71907;BME280;59781;52.090;5.030;2022-07-25T10:27:07;100948.56;;;24.87;56.99
71907;BME280;59781;52.090;5.030;2022-07-25T10:29:37;100949.63;;;24.49;56.65
71907;BME280;59781;52.090;5.030;2022-07-25T10:32:12;100949.47;;;24.34;57.19
71907;BME280;59781;52.090;5.030;2022-07-25T10:34:56;100955.59;;;24.73;55.99
71907;BME280;59781;52.090;5.030;2022-07-25T10:38:05;100953.75;;;25.10;54.54
71907;BME280;59781;52.090;5.030;2022-07-25T10:40:40;100962.84;;;24.79;55.32
71907;BME280;59781;52.090;5.030;2022-07-25T10:43:20;100960.53;;;24.39;57.12
71907;BME280;59781;52.090;5.030;2022-07-25T10:45:56;100964.16;;;24.44;56.34
71907;BME280;59781;52.090;5.030;2022-07-25T10:49:20;100958.97;;;24.26;56.80
71907;BME280;59781;52.090;5.030;2022-07-25T10:51:56;100955.00;;;23.90;56.67
71907;BME280;59781;52.090;5.030;2022-07-25T10:55:28;100956.59;;;23.64;57.46
71907;BME280;59781;52.090;5.030;2022-07-25T10:58:58;100965.66;;;23.26;58.92
71907;BME280;59781;52.090;5.030;2022-07-25T11:01:33;100972.97;;;23.75;57.17
71907;BME280;59781;52.090;5.030;2022-07-25T11:04:05;100980.22;;;23.82;58.36
71907;BME280;59781;52.090;5.030;2022-07-25T11:06:42;100976.50;;;23.54;58.70
71907;BME280;59781;52.090;5.030;2022-07-25T11:09:23;100976.38;;;23.61;59.39
71907;BME280;59781;52.090;5.030;2022-07-25T11:12:14;100984.50;;;23.56;60.07
71907;BME280;59781;52.090;5.030;2022-07-25T11:14:41;100977.63;;;23.75;59.42
71907;BME280;59781;52.090;5.030;2022-07-25T11:17:56;100977.72;;;23.41;60.25
71907;BME280;59781;52.090;5.030;2022-07-25T11:20:22;100984.81;;;23.21;61.85
71907;BME280;59781;52.090;5.030;2022-07-25T11:22:53;100982.56;;;23.17;62.81
71907;BME280;59781;52.090;5.030;2022-07-25T11:25:35;100983.00;;;22.93;62.92
71907;BME280;59781;52.090;5.030;2022-07-25T11:28:01;100979.06;;;23.05;62.59
71907;BME280;59781;52.090;5.030;2022-07-25T11:30:28;100981.00;;;23.22;63.01
71907;BME280;59781;52.090;5.030;2022-07-25T11:33:24;100985.31;;;23.73;60.72
71907;BME280;59781;52.090;5.030;2022-07-25T11:36:20;100982.81;;;23.93;58.74
71907;BME280;59781;52.090;5.030;2022-07-25T11:38:47;100987.28;;;23.78;57.61
71907;BME280;59781;52.090;5.030;2022-07-25T11:46:44;101005.78;;;23.10;61.13
71907;BME280;59781;52.090;5.030;2022-07-25T11:49:50;101008.31;;;23.11;60.93
71907;BME280;59781;52.090;5.030;2022-07-25T11:52:23;101009.09;;;23.45;59.69
71907;BME280;59781;52.090;5.030;2022-07-25T11:54:50;101009.91;;;23.80;59.49
71907;BME280;59781;52.090;5.030;2022-07-25T11:58:22;101002.03;;;24.10;58.41
71907;BME280;59781;52.090;5.030;2022-07-25T12:01:10;101002.00;;;23.66;58.53
71907;BME280;59781;52.090;5.030;2022-07-25T12:04:10;101001.91;;;24.76;56.18
71907;BME280;59781;52.090;5.030;2022-07-25T12:06:40;101010.03;;;25.20;53.93
71907;BME280;59781;52.090;5.030;2022-07-25T12:09:15;100997.28;;;25.51;52.60
71907;BME280;59781;52.090;5.030;2022-07-25T12:11:44;101002.56;;;25.57;51.78
71907;BME280;59781;52.090;5.030;2022-07-25T12:14:29;100999.84;;;24.93;51.33
71907;BME280;59781;52.090;5.030;2022-07-25T12:16:54;100996.56;;;24.15;52.51
71907;BME280;59781;52.090;5.030;2022-07-25T12:19:20;101017.50;;;24.16;53.49
71907;BME280;59781;52.090;5.030;2022-07-25T12:21:46;101011.56;;;25.42;49.31
71907;BME280;59781;52.090;5.030;2022-07-25T12:24:17;101006.81;;;25.01;48.64
71907;BME280;59781;52.090;5.030;2022-07-25T12:26:43;101010.13;;;25.35;49.80
71907;BME280;59781;52.090;5.030;2022-07-25T12:29:31;101005.78;;;25.07;50.14
71907;BME280;59781;52.090;5.030;2022-07-25T12:31:57;101006.31;;;25.78;48.34
71907;BME280;59781;52.090;5.030;2022-07-25T12:34:22;101013.88;;;25.61;46.57
71907;BME280;59781;52.090;5.030;2022-07-25T12:36:55;101012.22;;;26.12;44.92
71907;BME280;59781;52.090;5.030;2022-07-25T12:39:21;101001.06;;;26.49;45.49
71907;BME280;59781;52.090;5.030;2022-07-25T12:41:47;101008.09;;;26.10;43.95
71907;BME280;59781;52.090;5.030;2022-07-25T12:44:56;101007.97;;;25.42;44.86
71907;BME280;59781;52.090;5.030;2022-07-25T12:47:23;101002.25;;;26.01;46.41
71907;BME280;59781;52.090;5.030;2022-07-25T12:49:50;101011.22;;;25.71;45.31
71907;BME280;59781;52.090;5.030;2022-07-25T12:52:16;101002.66;;;25.30;47.50
71907;BME280;59781;52.090;5.030;2022-07-25T12:54:42;101012.63;;;24.72;47.52
71907;BME280;59781;52.090;5.030;2022-07-25T12:57:10;101007.16;;;25.46;46.46
71907;BME280;59781;52.090;5.030;2022-07-25T12:59:37;101012.41;;;25.90;46.80
71907;BME280;59781;52.090;5.030;2022-07-25T13:02:04;101013.47;;;26.47;44.80
71907;BME280;59781;52.090;5.030;2022-07-25T13:04:30;101011.59;;;26.88;44.33
71907;BME280;59781;52.090;5.030;2022-07-25T13:06:57;101013.75;;;26.50;43.64
71907;BME280;59781;52.090;5.030;2022-07-25T13:09:24;100999.47;;;27.14;43.15
71907;BME280;59781;52.090;5.030;2022-07-25T13:12:12;101022.25;;;25.71;45.20
71907;BME280;59781;52.090;5.030;2022-07-25T13:14:39;101008.00;;;25.89;44.97
71907;BME280;59781;52.090;5.030;2022-07-25T13:17:05;101011.56;;;26.63;43.26
71907;BME280;59781;52.090;5.030;2022-07-25T13:19:31;101018.72;;;26.48;43.97
71907;BME280;59781;52.090;5.030;2022-07-25T13:21:58;101011.91;;;25.56;44.20
71907;BME280;59781;52.090;5.030;2022-07-25T13:24:50;101010.78;;;25.94;44.94
71907;BME280;59781;52.090;5.030;2022-07-25T13:27:28;101020.47;;;26.02;44.23
71907;BME280;59781;52.090;5.030;2022-07-25T13:29:56;101017.22;;;25.26;45.29